createdAt,value
2022-08-08T00:01:08.582Z,22.90
2022-08-08T00:04:49.121Z,22.90
2022-08-08T00:08:24.426Z,22.90
2022-08-08T00:12:07.766Z,22.90
2022-08-08T00:15:56.978Z,22.90
2022-08-08T00:19:31.066Z,22.90
2022-08-08T00:23:06.231Z,22.90
2022-08-08T00:26:37.645Z,22.90
2022-08-08T00:30:07.770Z,22.90
2022-08-08T00:34:18.497Z,22.90
2022-08-08T00:38:01.350Z,22.90
2022-08-08T00:42:08.287Z,22.90
2022-08-08T00:46:02.205Z,22.80
2022-08-08T00:50:16.468Z,22.80
2022-08-08T00:54:15.420Z,22.80
2022-08-08T00:58:31.796Z,22.80
2022-08-08T01:03:57.291Z,22.80
2022-08-08T01:06:44.396Z,22.80
2022-08-08T01:10:59.730Z,22.70
2022-08-08T01:15:06.892Z,22.80
2022-08-08T01:19:13.541Z,22.70
2022-08-08T01:23:07.285Z,22.70
2022-08-08T01:27:32.966Z,22.70
2022-08-08T01:32:06.751Z,22.70
2022-08-08T01:36:10.212Z,22.70
2022-08-08T01:40:03.006Z,22.70
2022-08-08T01:43:39.127Z,22.60
2022-08-08T01:48:14.771Z,22.60
2022-08-08T01:52:28.086Z,22.60
2022-08-08T01:56:28.392Z,22.60
2022-08-08T02:00:01.761Z,22.60
2022-08-08T02:04:15.065Z,22.60
2022-08-08T02:08:06.961Z,22.60
2022-08-08T02:11:58.857Z,22.60
2022-08-08T02:15:40.715Z,22.60
2022-08-08T02:19:26.950Z,22.50
2022-08-08T02:23:18.445Z,22.50
2022-08-08T02:26:52.338Z,22.50
2022-08-08T02:30:32.934Z,22.50
2022-08-08T02:34:15.113Z,22.50
2022-08-08T02:38:30.232Z,22.50
2022-08-08T02:42:47.526Z,22.50
2022-08-08T02:46:50.657Z,22.50
2022-08-08T02:51:07.101Z,22.40
2022-08-08T02:55:03.939Z,22.50
2022-08-08T02:59:57.498Z,22.50
2022-08-08T03:05:03.296Z,22.40
2022-08-08T03:08:40.864Z,22.30
2022-08-08T03:13:02.247Z,22.30
2022-08-08T03:16:43.813Z,22.30
2022-08-08T03:20:16.084Z,22.30
2022-08-08T03:23:57.540Z,22.30
2022-08-08T03:27:35.840Z,22.30
2022-08-08T03:31:24.876Z,22.30
2022-08-08T03:34:55.549Z,22.30
2022-08-08T03:38:56.191Z,22.30
2022-08-08T03:42:30.319Z,22.20
2022-08-08T03:46:07.443Z,22.30
2022-08-08T03:50:00.689Z,22.20
2022-08-08T03:53:42.399Z,22.20
2022-08-08T03:58:29.878Z,22.20
2022-08-08T04:01:23.080Z,22.20
2022-08-08T04:04:56.406Z,22.20
2022-08-08T04:08:33.258Z,22.20
2022-08-08T04:12:03.694Z,22.20
2022-08-08T04:15:54.798Z,22.20
2022-08-08T04:19:25.894Z,22.20
2022-08-08T04:22:59.319Z,22.20
2022-08-08T04:26:40.027Z,22.20
2022-08-08T04:30:17.791Z,22.20
2022-08-08T04:33:47.079Z,22.20
2022-08-08T04:37:13.849Z,22.20
2022-08-08T04:40:51.726Z,22.20
2022-08-08T04:44:20.686Z,22.20
2022-08-08T04:47:47.186Z,22.20
2022-08-08T04:51:27.950Z,22.20
2022-08-08T04:55:04.531Z,22.20
2022-08-08T04:58:33.176Z,22.20
2022-08-08T05:01:59.490Z,22.20
2022-08-08T05:05:44.653Z,22.30
2022-08-08T05:09:23.394Z,22.30
2022-08-08T05:13:00.233Z,22.30
2022-08-08T05:16:52.613Z,22.30
2022-08-08T05:20:40.410Z,22.50
2022-08-08T05:24:22.774Z,22.50
2022-08-08T05:27:54.759Z,22.60
2022-08-08T05:32:05.410Z,22.80
2022-08-08T05:35:14.594Z,22.90
2022-08-08T05:38:49.202Z,23.10
2022-08-08T05:42:20.464Z,23.20
2022-08-08T05:45:53.104Z,23.30
2022-08-08T05:49:22.260Z,23.40
2022-08-08T05:52:56.965Z,23.50
2022-08-08T05:56:47.140Z,23.60
2022-08-08T06:00:25.286Z,23.70
2022-08-08T06:04:08.468Z,23.70
2022-08-08T06:07:52.061Z,23.80
2022-08-08T06:11:40.871Z,23.90
2022-08-08T06:15:16.307Z,24.00
2022-08-08T06:18:47.547Z,24.00
2022-08-08T06:22:35.445Z,24.10
2022-08-08T06:26:38.268Z,24.20
2022-08-08T06:30:07.395Z,24.20
2022-08-08T06:34:25.528Z,24.40
2022-08-08T06:37:55.787Z,24.50
2022-08-08T06:41:32.370Z,24.80
2022-08-08T06:45:01.533Z,25.20
2022-08-08T06:48:40.226Z,26.00
2022-08-08T06:52:15.909Z,27.40
2022-08-08T06:55:47.353Z,29.00
2022-08-08T07:08:04.516Z,32.10
2022-08-08T07:11:50.888Z,32.80
2022-08-08T07:15:32.775Z,33.30
2022-08-08T07:19:11.418Z,33.60
2022-08-08T07:22:59.338Z,33.50
2022-08-08T07:26:28.911Z,34.10
2022-08-08T07:30:05.752Z,34.80
2022-08-08T07:33:53.776Z,35.30
2022-08-08T07:37:24.113Z,35.70
2022-08-08T07:40:50.411Z,35.80
2022-08-08T07:44:37.506Z,36.00
2022-08-08T07:48:05.237Z,36.30
2022-08-08T07:51:53.459Z,36.50
2022-08-08T07:55:28.800Z,36.60
2022-08-08T07:58:56.916Z,36.80
2022-08-08T08:02:34.684Z,37.00
2022-08-08T08:06:04.090Z,37.10
2022-08-08T08:09:40.249Z,37.20
2022-08-08T08:13:25.856Z,37.30
2022-08-08T08:17:10.348Z,37.20
2022-08-08T08:20:41.420Z,37.30
2022-08-08T08:24:06.731Z,37.20
2022-08-08T08:27:35.140Z,37.20
2022-08-08T08:31:04.709Z,37.00
2022-08-08T08:34:32.573Z,36.90
2022-08-08T08:38:17.408Z,36.60
2022-08-08T08:41:48.656Z,36.40
2022-08-08T08:45:22.713Z,35.70
2022-08-08T08:48:52.366Z,34.00
2022-08-08T08:52:20.773Z,32.30
2022-08-08T08:55:49.456Z,31.10
2022-08-08T08:59:15.414Z,30.10
2022-08-08T09:02:52.824Z,29.30
2022-08-08T09:06:26.849Z,28.60
2022-08-08T09:09:58.265Z,28.10
2022-08-08T09:13:34.271Z,27.60
2022-08-08T09:17:09.801Z,27.30
2022-08-08T09:21:57.640Z,27.00
2022-08-08T09:24:24.850Z,26.90
2022-08-08T09:27:58.511Z,26.70
2022-08-08T09:44:18.970Z,26.30
2022-08-08T09:48:17.731Z,26.20
2022-08-08T09:56:12.508Z,26.20
2022-08-08T10:00:28.908Z,26.10
2022-08-08T10:03:41.672Z,26.10
2022-08-08T10:07:08.988Z,26.00
2022-08-08T10:10:41.680Z,26.00
2022-08-08T10:14:35.562Z,26.00
2022-08-08T10:18:25.863Z,26.00
2022-08-08T10:22:01.068Z,26.00
2022-08-08T10:25:56.130Z,26.00
2022-08-08T11:27:48.975Z,26.70
2022-08-08T11:40:12.910Z,26.80
2022-08-08T11:44:06.841Z,26.80
2022-08-08T12:03:37.155Z,26.80
2022-08-08T12:07:08.059Z,26.70
2022-08-08T12:31:53.739Z,26.70
2022-08-08T12:40:00.077Z,26.80
2022-08-08T12:51:58.657Z,26.70
2022-08-08T12:56:19.153Z,26.80
2022-08-08T13:40:41.088Z,26.80
2022-08-08T14:29:40.189Z,26.80
2022-08-08T14:41:55.212Z,26.70
2022-08-08T15:57:02.501Z,26.30
2022-08-08T16:13:07.455Z,26.20
2022-08-08T16:19:01.248Z,26.20
2022-08-08T16:55:00.527Z,26.10
2022-08-08T17:14:00.730Z,26.10
2022-08-08T17:22:39.138Z,26.00
2022-08-08T17:30:46.688Z,26.00
2022-08-08T17:34:54.770Z,26.00
2022-08-08T17:38:51.443Z,26.00
2022-08-08T17:42:36.549Z,25.90
2022-08-08T17:50:29.217Z,25.90
2022-08-08T17:54:38.599Z,25.80
2022-08-08T17:58:21.582Z,25.80
2022-08-08T18:02:04.361Z,25.80
2022-08-08T18:05:49.771Z,25.80
2022-08-08T18:09:25.066Z,25.80
2022-08-08T18:13:09.015Z,25.70
2022-08-08T18:16:52.633Z,25.70
2022-08-08T18:20:54.589Z,25.70
2022-08-08T18:24:37.475Z,25.70
2022-08-08T18:28:16.493Z,25.70
2022-08-08T18:31:54.767Z,25.70
2022-08-08T18:35:34.211Z,25.70
2022-08-08T18:39:16.598Z,25.60
2022-08-08T18:43:01.714Z,25.60
2022-08-08T18:46:59.485Z,25.60
2022-08-08T18:50:39.702Z,25.50
2022-08-08T18:54:29.776Z,25.40
2022-08-08T18:58:06.727Z,25.30
2022-08-08T19:02:28.816Z,25.30
2022-08-08T19:05:45.101Z,25.20
2022-08-08T19:09:14.923Z,25.20
2022-08-08T19:12:44.781Z,25.10
2022-08-08T19:16:23.453Z,25.10
2022-08-08T19:20:02.757Z,25.10
2022-08-08T19:23:35.506Z,25.00
2022-08-08T19:27:06.113Z,25.00
2022-08-08T19:30:38.903Z,25.00
2022-08-08T19:34:36.660Z,25.00
2022-08-08T19:38:07.104Z,24.90
2022-08-08T19:41:42.400Z,24.90
2022-08-08T19:45:10.275Z,24.90
2022-08-08T19:48:39.791Z,24.90
2022-08-08T19:52:10.480Z,24.80
2022-08-08T19:55:40.720Z,24.80
2022-08-08T19:59:22.361Z,24.80
2022-08-08T20:02:50.555Z,24.80
2022-08-08T20:06:20.635Z,24.70
2022-08-08T20:09:57.135Z,24.70
2022-08-08T20:14:13.310Z,24.70
2022-08-08T20:17:27.838Z,24.70
2022-08-08T20:21:02.349Z,24.60
2022-08-08T20:24:31.302Z,24.60
2022-08-08T20:28:07.230Z,24.60
2022-08-08T20:32:07.927Z,24.60
2022-08-08T20:35:58.982Z,24.60
2022-08-08T20:39:39.559Z,24.60
2022-08-08T20:43:23.197Z,24.50
2022-08-08T20:47:02.966Z,24.50
2022-08-08T20:50:34.349Z,24.50
2022-08-08T20:54:14.044Z,24.50
2022-08-08T20:57:47.782Z,24.40
2022-08-08T21:01:20.003Z,24.40
2022-08-08T21:04:50.207Z,24.40
2022-08-08T21:08:35.192Z,24.40
2022-08-08T21:12:07.348Z,24.40
2022-08-08T21:16:05.777Z,24.40
2022-08-08T21:19:22.834Z,24.30
2022-08-08T21:22:50.740Z,24.30
2022-08-08T21:26:27.283Z,24.30
2022-08-08T21:30:05.711Z,24.30
2022-08-08T21:33:42.399Z,24.30
2022-08-08T21:37:11.511Z,24.30
2022-08-08T21:40:54.807Z,24.20
2022-08-08T21:44:21.188Z,24.30
2022-08-08T21:48:05.363Z,24.20
2022-08-08T21:54:17.954Z,24.20
2022-08-08T21:55:23.942Z,24.20
2022-08-08T21:59:05.730Z,24.20
2022-08-08T22:02:34.889Z,24.10
2022-08-08T22:06:02.368Z,24.20
2022-08-08T22:09:40.954Z,24.10
2022-08-08T22:13:18.565Z,24.10
2022-08-08T22:16:44.045Z,24.10
2022-08-08T22:20:18.895Z,24.10
2022-08-08T22:23:52.264Z,24.00
2022-08-08T22:27:38.624Z,24.00
2022-08-08T22:31:04.864Z,24.00
2022-08-08T22:34:39.909Z,24.00
2022-08-08T22:38:04.524Z,24.00
2022-08-08T22:41:30.540Z,24.10
2022-08-08T22:44:56.851Z,24.10
2022-08-08T22:48:22.472Z,24.10
2022-08-08T22:51:49.976Z,24.00
2022-08-08T22:55:19.109Z,24.00
2022-08-08T22:58:51.255Z,24.00
2022-08-08T23:02:19.641Z,24.00
2022-08-08T23:05:49.921Z,24.00
2022-08-08T23:09:15.043Z,24.00
2022-08-08T23:12:41.545Z,23.90
2022-08-08T23:16:37.578Z,23.90
2022-08-08T23:19:54.046Z,23.90
2022-08-08T23:23:18.476Z,23.90
2022-08-08T23:26:43.112Z,23.90
2022-08-08T23:30:17.757Z,23.90
2022-08-08T23:34:16.611Z,23.80
2022-08-08T23:38:02.072Z,23.90
2022-08-08T23:41:24.529Z,23.90
2022-08-08T23:44:49.365Z,23.80
2022-08-08T23:49:02.870Z,23.80
2022-08-08T23:52:05.175Z,23.80
2022-08-08T23:55:32.017Z,23.80
2022-08-08T23:58:56.209Z,23.80
